Airfield :
LOGIN :

Register | Disclaimer

   EN    FR    IT 

 










Legend :    VFR   Marginal VFR   IFR   Intensive IFR   Very Intensive IFR
Visi :
Ceiling :
>= 8 km
>= 3000ft
5 to 8 km
1000 to 3000 ft
1500m to 5 km
500 to 1000 ft
800 to 1500m
200 to 500 ft
< 800m
< 200 ft
Symbols :   Thunderstorms  Fog  Heavy snow  Heavy precipitations  Wind > 20 kt
SIGMETs :     Misc.  Thunderstorms  Icing  Turbulence  Mountain Waves  Volcanic Ashes






- Airport Elevation : 659 ft
- IATA code : LYN


LFLY - Lyon Bron

CURRENT METAR :
  • 291930Z AUTO 14002KT 9999 FEW039 06/04 Q1021 NOSIG

EXPIRED METARs :
  • 291900Z AUTO 14002KT 9999 FEW045 BKN066 06/05 Q1021 NOSIG
  • 291830Z AUTO 15003KT 9999 FEW046 BKN066 07/05 Q1020 NOSIG
  • 291800Z AUTO VRB02KT CAVOK 08/05 Q1020 NOSIG
  • 291730Z AUTO 20005KT 9999 SCT040 BKN058 09/06 Q1020 NOSIG
  • 291700Z AUTO 20004KT 9999 BKN043 BKN049 OVC056 09/06 Q1019 NOSIG

TAF TAF LFLY
Valid from the 29 at 18:00 until the 30 at 18:00 UTC


291700Z 2918/3018 18005KT CAVOK
PROB40
TEMPO 2922/3007 VRB02KT 3000 BR
BECMG 3010/3012 -RA BKN040
TEMPO 3012/3018 4000 RA SCT014
ATIS : +33 4 72 15 87 96



MET'MAP, your aeronautical weather chart ! - Copyright ORBIFLY December 2007 - Disclaimer

ORBIFLY MET'MAP TEAM :

Programming & Development : Alexandra Zaïnal
Concept & original design : Baudouin d'Aumeries
Assistance for programming : Marc-Olivier Méhu
Technical & hardware support : Manuel Goepfert

Contact : metmap@orbifly.com




SOURCES & CREDITS :

   NOAA